sensor_id;sensor_type;location;lat;lon;timestamp;temperature;humidity
22321;DHT22;11328;53.928;18.522;2022-10-28T00:01:19;13.20;99.90
22321;DHT22;11328;53.928;18.522;2022-10-28T00:03:54;13.20;99.90
22321;DHT22;11328;53.928;18.522;2022-10-28T00:06:26;13.10;99.90
22321;DHT22;11328;53.928;18.522;2022-10-28T00:08:55;13.10;99.90
22321;DHT22;11328;53.928;18.522;2022-10-28T00:11:31;13.10;99.90
22321;DHT22;11328;53.928;18.522;2022-10-28T00:14:02;13.10;99.90
22321;DHT22;11328;53.928;18.522;2022-10-28T00:16:32;13.10;99.90
22321;DHT22;11328;53.928;18.522;2022-10-28T00:19:02;13.00;99.90
22321;DHT22;11328;53.928;18.522;2022-10-28T00:21:33;13.10;99.90
22321;DHT22;11328;53.928;18.522;2022-10-28T00:24:06;13.10;99.90
22321;DHT22;11328;53.928;18.522;2022-10-28T00:26:36;13.10;99.90
22321;DHT22;11328;53.928;18.522;2022-10-28T00:29:24;13.10;99.90
22321;DHT22;11328;53.928;18.522;2022-10-28T00:31:51;13.00;99.90
22321;DHT22;11328;53.928;18.522;2022-10-28T00:34:19;13.10;99.90
22321;DHT22;11328;53.928;18.522;2022-10-28T00:36:49;13.00;99.90
22321;DHT22;11328;53.928;18.522;2022-10-28T00:39:21;13.00;99.90
22321;DHT22;11328;53.928;18.522;2022-10-28T00:41:56;13.00;99.90
22321;DHT22;11328;53.928;18.522;2022-10-28T00:44:47;13.00;99.90
22321;DHT22;11328;53.928;18.522;2022-10-28T00:53:05;13.00;99.90
22321;DHT22;11328;53.928;18.522;2022-10-28T00:55:36;13.00;99.90
22321;DHT22;11328;53.928;18.522;2022-10-28T00:58:05;13.00;99.90
22321;DHT22;11328;53.928;18.522;2022-10-28T01:00:34;13.10;99.90
22321;DHT22;11328;53.928;18.522;2022-10-28T01:03:00;13.00;99.90
22321;DHT22;11328;53.928;18.522;2022-10-28T01:05:30;13.10;99.90
22321;DHT22;11328;53.928;18.522;2022-10-28T01:08:01;13.20;99.90
22321;DHT22;11328;53.928;18.522;2022-10-28T01:32:01;13.20;99.90
22321;DHT22;11328;53.928;18.522;2022-10-28T01:37:20;13.20;99.90
22321;DHT22;11328;53.928;18.522;2022-10-28T01:40:09;13.10;99.90
22321;DHT22;11328;53.928;18.522;2022-10-28T01:43:09;13.10;99.90
22321;DHT22;11328;53.928;18.522;2022-10-28T01:45:57;13.10;99.90
22321;DHT22;11328;53.928;18.522;2022-10-28T01:48:45;13.00;99.90
22321;DHT22;11328;53.928;18.522;2022-10-28T01:51:22;13.00;99.90
22321;DHT22;11328;53.928;18.522;2022-10-28T01:53:57;13.00;99.90
22321;DHT22;11328;53.928;18.522;2022-10-28T01:56:31;13.00;99.90
22321;DHT22;11328;53.928;18.522;2022-10-28T01:59:05;12.90;99.90
22321;DHT22;11328;53.928;18.522;2022-10-28T02:01:37;13.00;99.90
22321;DHT22;11328;53.928;18.522;2022-10-28T02:04:05;13.00;99.90
22321;DHT22;11328;53.928;18.522;2022-10-28T02:06:32;13.00;99.90
22321;DHT22;11328;53.928;18.522;2022-10-28T02:26:19;12.80;99.90
22321;DHT22;11328;53.928;18.522;2022-10-28T02:29:45;12.80;99.90
22321;DHT22;11328;53.928;18.522;2022-10-28T02:32:06;12.70;99.90
22321;DHT22;11328;53.928;18.522;2022-10-28T02:34:40;12.70;99.90
22321;DHT22;11328;53.928;18.522;2022-10-28T02:37:11;12.70;99.90
22321;DHT22;11328;53.928;18.522;2022-10-28T02:39:46;12.70;99.90
22321;DHT22;11328;53.928;18.522;2022-10-28T02:42:21;12.70;99.90
22321;DHT22;11328;53.928;18.522;2022-10-28T02:44:57;12.80;99.90
22321;DHT22;11328;53.928;18.522;2022-10-28T02:47:34;12.80;99.90
22321;DHT22;11328;53.928;18.522;2022-10-28T02:50:09;12.90;99.90
22321;DHT22;11328;53.928;18.522;2022-10-28T02:52:41;13.00;99.90
22321;DHT22;11328;53.928;18.522;2022-10-28T02:55:14;13.10;99.90
22321;DHT22;11328;53.928;18.522;2022-10-28T02:57:43;13.10;99.90
22321;DHT22;11328;53.928;18.522;2022-10-28T03:00:18;13.20;99.90
22321;DHT22;11328;53.928;18.522;2022-10-28T03:02:47;13.20;99.90
22321;DHT22;11328;53.928;18.522;2022-10-28T03:05:14;13.10;99.90
22321;DHT22;11328;53.928;18.522;2022-10-28T03:07:42;13.10;99.90
22321;DHT22;11328;53.928;18.522;2022-10-28T03:10:09;13.10;99.90
22321;DHT22;11328;53.928;18.522;2022-10-28T03:12:36;13.10;99.90
22321;DHT22;11328;53.928;18.522;2022-10-28T03:15:03;13.00;99.90
22321;DHT22;11328;53.928;18.522;2022-10-28T03:17:30;13.00;99.90
22321;DHT22;11328;53.928;18.522;2022-10-28T03:19:57;12.90;99.90
22321;DHT22;11328;53.928;18.522;2022-10-28T03:22:25;13.00;99.90
22321;DHT22;11328;53.928;18.522;2022-10-28T03:24:52;13.00;99.90
22321;DHT22;11328;53.928;18.522;2022-10-28T03:27:18;13.00;99.90
22321;DHT22;11328;53.928;18.522;2022-10-28T03:29:45;13.00;99.90
22321;DHT22;11328;53.928;18.522;2022-10-28T03:32:13;13.00;99.90
22321;DHT22;11328;53.928;18.522;2022-10-28T03:34:40;13.10;99.90
22321;DHT22;11328;53.928;18.522;2022-10-28T03:37:07;13.10;99.90
22321;DHT22;11328;53.928;18.522;2022-10-28T03:39:34;13.00;99.90
22321;DHT22;11328;53.928;18.522;2022-10-28T03:42:02;13.10;99.90
22321;DHT22;11328;53.928;18.522;2022-10-28T03:44:29;13.10;99.90
22321;DHT22;11328;53.928;18.522;2022-10-28T03:46:57;13.10;99.90
22321;DHT22;11328;53.928;18.522;2022-10-28T03:49:24;13.10;99.90
22321;DHT22;11328;53.928;18.522;2022-10-28T03:51:51;13.00;99.90
22321;DHT22;11328;53.928;18.522;2022-10-28T03:54:18;12.90;99.90
22321;DHT22;11328;53.928;18.522;2022-10-28T03:56:45;12.90;99.90
22321;DHT22;11328;53.928;18.522;2022-10-28T03:59:11;12.90;99.90
22321;DHT22;11328;53.928;18.522;2022-10-28T04:01:43;12.90;99.90
22321;DHT22;11328;53.928;18.522;2022-10-28T04:04:10;12.80;99.90
22321;DHT22;11328;53.928;18.522;2022-10-28T04:06:37;12.80;99.90
22321;DHT22;11328;53.928;18.522;2022-10-28T04:09:04;12.80;99.90
22321;DHT22;11328;53.928;18.522;2022-10-28T04:11:31;12.80;99.90
22321;DHT22;11328;53.928;18.522;2022-10-28T04:13:58;12.80;99.90
22321;DHT22;11328;53.928;18.522;2022-10-28T04:16:25;12.80;99.90
22321;DHT22;11328;53.928;18.522;2022-10-28T04:18:52;12.80;99.90
22321;DHT22;11328;53.928;18.522;2022-10-28T04:21:19;12.80;99.90
22321;DHT22;11328;53.928;18.522;2022-10-28T04:23:46;12.90;99.90
22321;DHT22;11328;53.928;18.522;2022-10-28T04:26:13;12.90;99.90
22321;DHT22;11328;53.928;18.522;2022-10-28T04:28:40;12.90;99.90
22321;DHT22;11328;53.928;18.522;2022-10-28T04:31:07;12.90;99.90
22321;DHT22;11328;53.928;18.522;2022-10-28T04:33:37;12.90;99.90
22321;DHT22;11328;53.928;18.522;2022-10-28T04:36:04;12.90;99.90
22321;DHT22;11328;53.928;18.522;2022-10-28T04:38:32;12.90;99.90
22321;DHT22;11328;53.928;18.522;2022-10-28T04:40:59;12.90;99.90
22321;DHT22;11328;53.928;18.522;2022-10-28T04:43:26;12.90;99.90
22321;DHT22;11328;53.928;18.522;2022-10-28T04:45:53;13.00;99.90
22321;DHT22;11328;53.928;18.522;2022-10-28T04:48:20;13.00;99.90
22321;DHT22;11328;53.928;18.522;2022-10-28T04:50:48;13.00;99.90
22321;DHT22;11328;53.928;18.522;2022-10-28T04:53:15;13.00;99.90
22321;DHT22;11328;53.928;18.522;2022-10-28T04:55:42;13.00;99.90
22321;DHT22;11328;53.928;18.522;2022-10-28T04:58:09;13.00;99.90
22321;DHT22;11328;53.928;18.522;2022-10-28T05:00:36;13.10;99.90
22321;DHT22;11328;53.928;18.522;2022-10-28T05:03:03;13.00;99.90
22321;DHT22;11328;53.928;18.522;2022-10-28T05:05:30;13.00;99.90
22321;DHT22;11328;53.928;18.522;2022-10-28T05:07:57;13.00;99.90
22321;DHT22;11328;53.928;18.522;2022-10-28T05:10:24;13.10;99.90
22321;DHT22;11328;53.928;18.522;2022-10-28T05:12:51;13.00;99.90
22321;DHT22;11328;53.928;18.522;2022-10-28T05:15:18;13.00;99.90
22321;DHT22;11328;53.928;18.522;2022-10-28T05:17:46;13.00;99.90
22321;DHT22;11328;53.928;18.522;2022-10-28T05:20:22;13.00;99.90
22321;DHT22;11328;53.928;18.522;2022-10-28T05:22:51;13.00;99.90
22321;DHT22;11328;53.928;18.522;2022-10-28T05:25:21;13.00;99.90
22321;DHT22;11328;53.928;18.522;2022-10-28T05:27:48;13.00;99.90
22321;DHT22;11328;53.928;18.522;2022-10-28T05:30:16;13.00;99.90
22321;DHT22;11328;53.928;18.522;2022-10-28T05:32:44;13.00;99.90
22321;DHT22;11328;53.928;18.522;2022-10-28T05:35:15;13.00;99.90
22321;DHT22;11328;53.928;18.522;2022-10-28T05:37:43;13.00;99.90
22321;DHT22;11328;53.928;18.522;2022-10-28T05:40:10;13.10;99.90
22321;DHT22;11328;53.928;18.522;2022-10-28T05:42:41;13.10;99.90
22321;DHT22;11328;53.928;18.522;2022-10-28T05:45:09;13.10;99.90
22321;DHT22;11328;53.928;18.522;2022-10-28T05:47:47;13.00;99.90
22321;DHT22;11328;53.928;18.522;2022-10-28T05:50:16;12.90;99.90
22321;DHT22;11328;53.928;18.522;2022-10-28T05:52:46;12.80;99.90
22321;DHT22;11328;53.928;18.522;2022-10-28T05:55:15;12.80;99.90
22321;DHT22;11328;53.928;18.522;2022-10-28T05:57:49;12.80;99.90
22321;DHT22;11328;53.928;18.522;2022-10-28T06:00:20;12.90;99.90
22321;DHT22;11328;53.928;18.522;2022-10-28T06:02:49;12.90;99.90
22321;DHT22;11328;53.928;18.522;2022-10-28T06:05:16;12.90;99.90
22321;DHT22;11328;53.928;18.522;2022-10-28T06:07:43;12.90;99.90
22321;DHT22;11328;53.928;18.522;2022-10-28T06:10:10;12.90;99.90
22321;DHT22;11328;53.928;18.522;2022-10-28T06:12:37;12.90;99.90
22321;DHT22;11328;53.928;18.522;2022-10-28T06:15:05;12.90;99.90
22321;DHT22;11328;53.928;18.522;2022-10-28T06:17:32;12.90;99.90
22321;DHT22;11328;53.928;18.522;2022-10-28T06:19:59;13.00;99.90
22321;DHT22;11328;53.928;18.522;2022-10-28T06:22:26;13.00;99.90
22321;DHT22;11328;53.928;18.522;2022-10-28T06:24:53;13.00;99.90
22321;DHT22;11328;53.928;18.522;2022-10-28T06:27:20;13.00;99.90
22321;DHT22;11328;53.928;18.522;2022-10-28T06:29:47;13.00;99.90
22321;DHT22;11328;53.928;18.522;2022-10-28T06:32:14;13.00;99.90
22321;DHT22;11328;53.928;18.522;2022-10-28T06:34:41;13.10;99.90
22321;DHT22;11328;53.928;18.522;2022-10-28T06:37:08;13.20;99.90
22321;DHT22;11328;53.928;18.522;2022-10-28T06:39:36;13.30;99.90
22321;DHT22;11328;53.928;18.522;2022-10-28T06:42:06;13.50;99.90
22321;DHT22;11328;53.928;18.522;2022-10-28T06:44:34;13.50;99.90
22321;DHT22;11328;53.928;18.522;2022-10-28T06:47:00;13.60;99.90
22321;DHT22;11328;53.928;18.522;2022-10-28T06:49:27;13.60;99.90
22321;DHT22;11328;53.928;18.522;2022-10-28T06:51:57;13.70;99.90
22321;DHT22;11328;53.928;18.522;2022-10-28T06:54:24;13.80;99.90
22321;DHT22;11328;53.928;18.522;2022-10-28T06:56:51;13.90;99.90
22321;DHT22;11328;53.928;18.522;2022-10-28T06:59:18;13.90;99.90
22321;DHT22;11328;53.928;18.522;2022-10-28T07:01:45;14.00;99.90
22321;DHT22;11328;53.928;18.522;2022-10-28T07:04:12;14.10;99.90
22321;DHT22;11328;53.928;18.522;2022-10-28T07:06:40;14.20;99.90
22321;DHT22;11328;53.928;18.522;2022-10-28T07:09:08;14.20;99.90
22321;DHT22;11328;53.928;18.522;2022-10-28T07:11:39;14.30;99.90
22321;DHT22;11328;53.928;18.522;2022-10-28T07:14:09;14.30;99.90
22321;DHT22;11328;53.928;18.522;2022-10-28T07:16:36;14.30;99.90
22321;DHT22;11328;53.928;18.522;2022-10-28T07:19:03;14.40;99.90
22321;DHT22;11328;53.928;18.522;2022-10-28T07:21:30;14.40;99.90
22321;DHT22;11328;53.928;18.522;2022-10-28T07:23:57;14.40;99.90
22321;DHT22;11328;53.928;18.522;2022-10-28T07:26:25;14.40;99.90
22321;DHT22;11328;53.928;18.522;2022-10-28T07:28:52;14.40;99.90
22321;DHT22;11328;53.928;18.522;2022-10-28T07:31:20;14.40;99.90
22321;DHT22;11328;53.928;18.522;2022-10-28T07:33:51;14.50;99.90
22321;DHT22;11328;53.928;18.522;2022-10-28T07:36:19;14.50;99.90
22321;DHT22;11328;53.928;18.522;2022-10-28T07:38:50;14.50;99.90
22321;DHT22;11328;53.928;18.522;2022-10-28T07:53:41;14.40;99.90
22321;DHT22;11328;53.928;18.522;2022-10-28T07:56:10;15.00;99.90
22321;DHT22;11328;53.928;18.522;2022-10-28T07:58:42;14.80;99.90
22321;DHT22;11328;53.928;18.522;2022-10-28T08:01:12;14.70;99.90
22321;DHT22;11328;53.928;18.522;2022-10-28T08:03:41;14.70;99.90
22321;DHT22;11328;53.928;18.522;2022-10-28T08:06:11;14.60;99.90
22321;DHT22;11328;53.928;18.522;2022-10-28T08:08:41;14.60;99.90
22321;DHT22;11328;53.928;18.522;2022-10-28T08:11:11;14.60;99.90
22321;DHT22;11328;53.928;18.522;2022-10-28T08:13:45;14.60;99.90
22321;DHT22;11328;53.928;18.522;2022-10-28T08:16:13;14.50;99.90
22321;DHT22;11328;53.928;18.522;2022-10-28T08:18:40;14.40;99.90
22321;DHT22;11328;53.928;18.522;2022-10-28T08:21:09;14.40;99.90
22321;DHT22;11328;53.928;18.522;2022-10-28T08:23:36;14.40;99.90
22321;DHT22;11328;53.928;18.522;2022-10-28T08:26:04;14.40;99.90
22321;DHT22;11328;53.928;18.522;2022-10-28T08:28:31;14.40;99.90
22321;DHT22;11328;53.928;18.522;2022-10-28T08:30:59;14.50;99.90
22321;DHT22;11328;53.928;18.522;2022-10-28T08:33:37;14.50;99.90
22321;DHT22;11328;53.928;18.522;2022-10-28T08:36:07;14.40;99.90
22321;DHT22;11328;53.928;18.522;2022-10-28T08:38:36;14.50;99.90
22321;DHT22;11328;53.928;18.522;2022-10-28T08:41:45;14.50;99.90
22321;DHT22;11328;53.928;18.522;2022-10-28T08:47:21;14.50;99.90
22321;DHT22;11328;53.928;18.522;2022-10-28T08:50:00;14.50;99.90
22321;DHT22;11328;53.928;18.522;2022-10-28T08:53:00;14.70;99.90
22321;DHT22;11328;53.928;18.522;2022-10-28T08:55:40;14.70;99.90
22321;DHT22;11328;53.928;18.522;2022-10-28T08:58:16;14.60;99.90
22321;DHT22;11328;53.928;18.522;2022-10-28T09:00:52;14.60;99.90
22321;DHT22;11328;53.928;18.522;2022-10-28T09:03:23;14.60;99.90
22321;DHT22;11328;53.928;18.522;2022-10-28T09:06:00;14.60;99.90
22321;DHT22;11328;53.928;18.522;2022-10-28T09:08:33;14.60;99.90
22321;DHT22;11328;53.928;18.522;2022-10-28T09:14:29;14.50;99.90
22321;DHT22;11328;53.928;18.522;2022-10-28T09:28:23;14.60;99.90
22321;DHT22;11328;53.928;18.522;2022-10-28T09:31:52;14.70;99.90
22321;DHT22;11328;53.928;18.522;2022-10-28T09:34:38;14.70;99.90
22321;DHT22;11328;53.928;18.522;2022-10-28T09:37:34;14.70;99.90
22321;DHT22;11328;53.928;18.522;2022-10-28T09:40:20;14.60;99.90
22321;DHT22;11328;53.928;18.522;2022-10-28T09:43:03;14.70;99.90
22321;DHT22;11328;53.928;18.522;2022-10-28T09:45:36;14.60;99.90
22321;DHT22;11328;53.928;18.522;2022-10-28T09:48:15;14.60;99.90
22321;DHT22;11328;53.928;18.522;2022-10-28T09:50:50;14.60;99.90
22321;DHT22;11328;53.928;18.522;2022-10-28T09:53:40;14.60;99.90
22321;DHT22;11328;53.928;18.522;2022-10-28T09:56:10;14.70;99.90
22321;DHT22;11328;53.928;18.522;2022-10-28T09:58:42;14.70;99.90
22321;DHT22;11328;53.928;18.522;2022-10-28T10:01:16;14.60;99.90
22321;DHT22;11328;53.928;18.522;2022-10-28T10:03:47;14.60;99.90
22321;DHT22;11328;53.928;18.522;2022-10-28T10:06:26;14.70;99.90
22321;DHT22;11328;53.928;18.522;2022-10-28T10:08:59;14.70;99.90
22321;DHT22;11328;53.928;18.522;2022-10-28T10:14:12;14.80;99.90
22321;DHT22;11328;53.928;18.522;2022-10-28T10:17:11;14.80;99.90
22321;DHT22;11328;53.928;18.522;2022-10-28T10:20:20;14.80;99.90
22321;DHT22;11328;53.928;18.522;2022-10-28T10:22:48;14.90;99.90
22321;DHT22;11328;53.928;18.522;2022-10-28T10:28:13;15.00;99.90
22321;DHT22;11328;53.928;18.522;2022-10-28T10:30:50;15.10;99.90
22321;DHT22;11328;53.928;18.522;2022-10-28T10:33:27;15.10;99.90
22321;DHT22;11328;53.928;18.522;2022-10-28T10:38:52;15.10;99.90
22321;DHT22;11328;53.928;18.522;2022-10-28T10:41:43;15.00;99.90
22321;DHT22;11328;53.928;18.522;2022-10-28T10:49:33;15.20;99.90
22321;DHT22;11328;53.928;18.522;2022-10-28T10:52:05;15.20;99.90
22321;DHT22;11328;53.928;18.522;2022-10-28T10:54:56;15.10;99.90
22321;DHT22;11328;53.928;18.522;2022-10-28T10:57:25;15.10;99.90
22321;DHT22;11328;53.928;18.522;2022-10-28T10:59:54;15.00;99.90
22321;DHT22;11328;53.928;18.522;2022-10-28T11:05:09;15.10;99.90
22321;DHT22;11328;53.928;18.522;2022-10-28T11:07:38;15.10;99.90
22321;DHT22;11328;53.928;18.522;2022-10-28T11:10:26;15.10;99.90
22321;DHT22;11328;53.928;18.522;2022-10-28T11:12:56;15.30;99.90
22321;DHT22;11328;53.928;18.522;2022-10-28T11:15:28;15.30;99.90
22321;DHT22;11328;53.928;18.522;2022-10-28T11:20:58;15.40;99.90
22321;DHT22;11328;53.928;18.522;2022-10-28T11:24:00;15.40;99.90
22321;DHT22;11328;53.928;18.522;2022-10-28T11:26:36;15.30;99.90
22321;DHT22;11328;53.928;18.522;2022-10-28T11:29:25;15.40;99.90
22321;DHT22;11328;53.928;18.522;2022-10-28T11:32:01;15.40;99.90
22321;DHT22;11328;53.928;18.522;2022-10-28T11:38:04;15.50;99.90
22321;DHT22;11328;53.928;18.522;2022-10-28T11:43:52;15.60;99.90
22321;DHT22;11328;53.928;18.522;2022-10-28T11:49:25;15.80;99.90
22321;DHT22;11328;53.928;18.522;2022-10-28T12:07:32;16.00;99.90
22321;DHT22;11328;53.928;18.522;2022-10-28T12:21:56;16.20;99.90
22321;DHT22;11328;53.928;18.522;2022-10-28T12:24:26;17.20;99.90
22321;DHT22;11328;53.928;18.522;2022-10-28T12:26:59;17.10;99.90
22321;DHT22;11328;53.928;18.522;2022-10-28T12:29:35;17.10;99.90
22321;DHT22;11328;53.928;18.522;2022-10-28T12:32:12;17.00;99.90
22321;DHT22;11328;53.928;18.522;2022-10-28T12:34:51;16.80;99.90
22321;DHT22;11328;53.928;18.522;2022-10-28T12:37:59;16.80;99.90
22321;DHT22;11328;53.928;18.522;2022-10-28T12:40:47;16.90;99.90
22321;DHT22;11328;53.928;18.522;2022-10-28T12:43:23;16.90;99.90
22321;DHT22;11328;53.928;18.522;2022-10-28T12:45:54;17.00;99.90
22321;DHT22;11328;53.928;18.522;2022-10-28T12:48:45;16.90;99.90
22321;DHT22;11328;53.928;18.522;2022-10-28T12:51:37;16.90;99.90
22321;DHT22;11328;53.928;18.522;2022-10-28T12:54:31;16.90;99.90
22321;DHT22;11328;53.928;18.522;2022-10-28T12:57:13;16.90;99.90
22321;DHT22;11328;53.928;18.522;2022-10-28T12:59:50;16.90;99.90
22321;DHT22;11328;53.928;18.522;2022-10-28T13:02:31;16.90;99.90
22321;DHT22;11328;53.928;18.522;2022-10-28T13:05:05;16.90;99.90
22321;DHT22;11328;53.928;18.522;2022-10-28T13:08:03;16.90;99.90
22321;DHT22;11328;53.928;18.522;2022-10-28T13:23:10;16.80;99.90
22321;DHT22;11328;53.928;18.522;2022-10-28T13:28:52;16.90;99.90
22321;DHT22;11328;53.928;18.522;2022-10-28T13:31:22;16.80;99.90
22321;DHT22;11328;53.928;18.522;2022-10-28T13:34:13;16.80;99.90
22321;DHT22;11328;53.928;18.522;2022-10-28T13:36:53;16.80;99.90
22321;DHT22;11328;53.928;18.522;2022-10-28T13:44:55;16.90;99.90
22321;DHT22;11328;53.928;18.522;2022-10-28T13:47:34;16.90;99.90
22321;DHT22;11328;53.928;18.522;2022-10-28T13:52:41;17.00;99.90
22321;DHT22;11328;53.928;18.522;2022-10-28T13:55:39;17.00;99.90
22321;DHT22;11328;53.928;18.522;2022-10-28T13:58:35;17.00;99.90
22321;DHT22;11328;53.928;18.522;2022-10-28T14:01:35;17.10;99.90
22321;DHT22;11328;53.928;18.522;2022-10-28T14:04:40;17.00;99.90
22321;DHT22;11328;53.928;18.522;2022-10-28T14:07:21;16.90;99.90
22321;DHT22;11328;53.928;18.522;2022-10-28T14:09:57;16.90;99.90
22321;DHT22;11328;53.928;18.522;2022-10-28T14:15:47;16.90;99.90
22321;DHT22;11328;53.928;18.522;2022-10-28T14:21:03;16.90;99.90
22321;DHT22;11328;53.928;18.522;2022-10-28T14:26:01;16.90;99.90
22321;DHT22;11328;53.928;18.522;2022-10-28T14:50:23;16.90;99.90
22321;DHT22;11328;53.928;18.522;2022-10-28T14:52:55;16.90;99.90
22321;DHT22;11328;53.928;18.522;2022-10-28T14:55:29;16.90;99.90
22321;DHT22;11328;53.928;18.522;2022-10-28T14:58:22;16.90;99.90
22321;DHT22;11328;53.928;18.522;2022-10-28T15:03:38;16.80;99.90
22321;DHT22;11328;53.928;18.522;2022-10-28T15:06:45;16.90;99.90
22321;DHT22;11328;53.928;18.522;2022-10-28T15:11:49;16.90;99.90
22321;DHT22;11328;53.928;18.522;2022-10-28T15:16:54;16.90;99.90
22321;DHT22;11328;53.928;18.522;2022-10-28T15:19:26;16.90;99.90
22321;DHT22;11328;53.928;18.522;2022-10-28T15:24:37;17.00;99.90
22321;DHT22;11328;53.928;18.522;2022-10-28T15:27:12;16.90;99.90
22321;DHT22;11328;53.928;18.522;2022-10-28T15:29:41;17.00;99.90
22321;DHT22;11328;53.928;18.522;2022-10-28T15:32:24;17.00;99.90
22321;DHT22;11328;53.928;18.522;2022-10-28T15:34:54;17.00;99.90
22321;DHT22;11328;53.928;18.522;2022-10-28T15:37:27;17.00;99.90
22321;DHT22;11328;53.928;18.522;2022-10-28T15:40:15;17.00;99.90
22321;DHT22;11328;53.928;18.522;2022-10-28T15:45:28;17.10;99.90
22321;DHT22;11328;53.928;18.522;2022-10-28T15:47:58;17.10;99.90
22321;DHT22;11328;53.928;18.522;2022-10-28T15:50:31;17.20;99.90
22321;DHT22;11328;53.928;18.522;2022-10-28T15:53:31;17.20;99.90
22321;DHT22;11328;53.928;18.522;2022-10-28T15:56:27;17.20;99.90
22321;DHT22;11328;53.928;18.522;2022-10-28T15:59:04;17.00;99.90
22321;DHT22;11328;53.928;18.522;2022-10-28T16:01:38;16.90;99.90
22321;DHT22;11328;53.928;18.522;2022-10-28T16:06:45;16.90;99.90
22321;DHT22;11328;53.928;18.522;2022-10-28T16:09:42;16.80;99.90
22321;DHT22;11328;53.928;18.522;2022-10-28T16:12:19;16.70;99.90
22321;DHT22;11328;53.928;18.522;2022-10-28T16:14:54;16.70;99.90
22321;DHT22;11328;53.928;18.522;2022-10-28T16:17:29;16.70;99.90
22321;DHT22;11328;53.928;18.522;2022-10-28T16:20:10;16.70;99.90
22321;DHT22;11328;53.928;18.522;2022-10-28T16:22:45;16.60;99.90
22321;DHT22;11328;53.928;18.522;2022-10-28T16:25:20;16.60;99.90
22321;DHT22;11328;53.928;18.522;2022-10-28T16:27:48;16.60;99.90
22321;DHT22;11328;53.928;18.522;2022-10-28T16:30:18;16.60;99.90
22321;DHT22;11328;53.928;18.522;2022-10-28T16:32:47;16.60;99.90
22321;DHT22;11328;53.928;18.522;2022-10-28T16:35:18;16.50;99.90
22321;DHT22;11328;53.928;18.522;2022-10-28T16:37:49;16.50;99.90
22321;DHT22;11328;53.928;18.522;2022-10-28T16:40:21;16.50;99.90
22321;DHT22;11328;53.928;18.522;2022-10-28T16:43:16;16.40;99.90
22321;DHT22;11328;53.928;18.522;2022-10-28T16:45:47;16.50;99.90
22321;DHT22;11328;53.928;18.522;2022-10-28T16:48:19;16.50;99.90
22321;DHT22;11328;53.928;18.522;2022-10-28T16:50:53;16.50;99.90
22321;DHT22;11328;53.928;18.522;2022-10-28T16:53:21;16.60;99.90
22321;DHT22;11328;53.928;18.522;2022-10-28T16:55:51;16.60;99.90
22321;DHT22;11328;53.928;18.522;2022-10-28T16:58:26;16.70;99.90
22321;DHT22;11328;53.928;18.522;2022-10-28T17:00:58;16.60;99.90
22321;DHT22;11328;53.928;18.522;2022-10-28T17:03:26;16.60;99.90
22321;DHT22;11328;53.928;18.522;2022-10-28T17:05:54;16.60;99.90
22321;DHT22;11328;53.928;18.522;2022-10-28T17:08:22;16.60;99.90
22321;DHT22;11328;53.928;18.522;2022-10-28T17:11:13;16.60;99.90
22321;DHT22;11328;53.928;18.522;2022-10-28T17:13:42;16.50;99.90
22321;DHT22;11328;53.928;18.522;2022-10-28T17:16:10;16.40;99.90
22321;DHT22;11328;53.928;18.522;2022-10-28T17:18:39;16.30;99.90
22321;DHT22;11328;53.928;18.522;2022-10-28T17:21:08;16.30;99.90
22321;DHT22;11328;53.928;18.522;2022-10-28T17:23:38;16.30;99.90
22321;DHT22;11328;53.928;18.522;2022-10-28T17:26:06;16.20;99.90
22321;DHT22;11328;53.928;18.522;2022-10-28T17:28:34;16.20;99.90
22321;DHT22;11328;53.928;18.522;2022-10-28T17:31:03;16.10;99.90
22321;DHT22;11328;53.928;18.522;2022-10-28T17:33:32;16.00;99.90
22321;DHT22;11328;53.928;18.522;2022-10-28T17:36:05;16.00;99.90
22321;DHT22;11328;53.928;18.522;2022-10-28T17:38:34;15.90;99.90
22321;DHT22;11328;53.928;18.522;2022-10-28T17:41:02;15.90;99.90
22321;DHT22;11328;53.928;18.522;2022-10-28T17:43:29;15.80;99.90
22321;DHT22;11328;53.928;18.522;2022-10-28T17:46:05;15.80;99.90
22321;DHT22;11328;53.928;18.522;2022-10-28T17:48:33;15.80;99.90
22321;DHT22;11328;53.928;18.522;2022-10-28T17:51:01;15.70;99.90
22321;DHT22;11328;53.928;18.522;2022-10-28T17:53:29;15.70;99.90
22321;DHT22;11328;53.928;18.522;2022-10-28T17:56:02;15.70;99.90
22321;DHT22;11328;53.928;18.522;2022-10-28T17:58:31;15.80;99.90
22321;DHT22;11328;53.928;18.522;2022-10-28T18:01:03;15.80;99.90
22321;DHT22;11328;53.928;18.522;2022-10-28T18:03:33;15.70;99.90
22321;DHT22;11328;53.928;18.522;2022-10-28T18:06:05;15.70;99.90
22321;DHT22;11328;53.928;18.522;2022-10-28T18:08:38;15.70;99.90
22321;DHT22;11328;53.928;18.522;2022-10-28T18:11:10;15.70;99.90
22321;DHT22;11328;53.928;18.522;2022-10-28T18:13:41;15.70;99.90
22321;DHT22;11328;53.928;18.522;2022-10-28T18:16:21;15.60;99.90
22321;DHT22;11328;53.928;18.522;2022-10-28T18:18:51;15.60;99.90
22321;DHT22;11328;53.928;18.522;2022-10-28T18:21:20;15.50;99.90
22321;DHT22;11328;53.928;18.522;2022-10-28T18:23:52;15.50;99.90
22321;DHT22;11328;53.928;18.522;2022-10-28T18:26:20;15.50;99.90
22321;DHT22;11328;53.928;18.522;2022-10-28T18:28:47;15.50;99.90
22321;DHT22;11328;53.928;18.522;2022-10-28T18:31:17;15.50;99.90
22321;DHT22;11328;53.928;18.522;2022-10-28T18:33:46;15.50;99.90
22321;DHT22;11328;53.928;18.522;2022-10-28T18:36:20;15.50;99.90
22321;DHT22;11328;53.928;18.522;2022-10-28T18:38:50;15.50;99.90
22321;DHT22;11328;53.928;18.522;2022-10-28T18:41:23;15.50;99.90
22321;DHT22;11328;53.928;18.522;2022-10-28T18:43:58;15.40;99.90
22321;DHT22;11328;53.928;18.522;2022-10-28T18:46:28;15.40;99.90
22321;DHT22;11328;53.928;18.522;2022-10-28T18:48:58;15.40;99.90
22321;DHT22;11328;53.928;18.522;2022-10-28T18:51:32;15.30;99.90
22321;DHT22;11328;53.928;18.522;2022-10-28T18:54:00;15.20;99.90
22321;DHT22;11328;53.928;18.522;2022-10-28T18:56:28;15.10;99.90
22321;DHT22;11328;53.928;18.522;2022-10-28T18:58:57;15.00;99.90
22321;DHT22;11328;53.928;18.522;2022-10-28T19:01:29;14.90;99.90
22321;DHT22;11328;53.928;18.522;2022-10-28T19:04:02;14.90;99.90
22321;DHT22;11328;53.928;18.522;2022-10-28T19:06:32;14.90;99.90
22321;DHT22;11328;53.928;18.522;2022-10-28T19:09:03;14.80;99.90
22321;DHT22;11328;53.928;18.522;2022-10-28T19:11:33;14.80;99.90
22321;DHT22;11328;53.928;18.522;2022-10-28T19:14:03;14.80;99.90
22321;DHT22;11328;53.928;18.522;2022-10-28T19:16:33;14.80;99.90